Time,TemperatureF,DewpointF,PressureIn,WindDirection,WindDirectionDegrees,WindSpeedMPH,WindSpeedGustMPH,Humidity,HourlyPrecipIn,Conditions,Clouds,dailyrainin,SolarRadiationWatts/m^2,SoftwareType,DateUTC
2013-02-12 01:00:00,25.0,19.0,29.83,West,272,16.0,-999.0,76,-99.99,,,-99.99,0.030000,,2013-02-12 08:00:00,
2013-02-12 01:52:00,25.0,19.0,29.83,West,272,16.0,-999.0,76,-99.99,,,-99.99,0.030000,,2013-02-12 08:52:00,
2013-02-12 02:00:00,24.0,18.0,29.84,West,272,16.0,-999.0,80,-99.99,,,-99.99,0.030000,,2013-02-12 09:00:00,
2013-02-12 02:52:00,24.0,18.0,29.84,West,272,16.0,-999.0,80,-99.99,,,-99.99,0.030000,,2013-02-12 09:52:00,
2013-02-12 03:00:00,22.0,17.0,29.84,WNW,287,10.0,-999.0,82,-99.99,,,-99.99,0.040000,,2013-02-12 10:00:00,
2013-02-12 03:52:00,22.0,17.0,29.84,WNW,287,10.0,-999.0,82,-99.99,,,-99.99,0.040000,,2013-02-12 10:52:00,
2013-02-12 04:00:00,25.0,20.0,29.84,West,280,13.0,-999.0,79,-99.99,,,-99.99,0.020000,,2013-02-12 11:00:00,
2013-02-12 04:52:00,25.0,20.0,29.84,West,280,13.0,-999.0,79,-99.99,,,-99.99,0.020000,,2013-02-12 11:52:00,
2013-02-12 05:00:00,25.0,20.0,29.84,West,270,16.0,-999.0,81,-99.99,,,-99.99,0.030000,,2013-02-12 12:00:00,
2013-02-12 05:53:00,25.0,20.0,29.84,West,270,16.0,-999.0,81,-99.99,,,-99.99,0.030000,,2013-02-12 12:53:00,
2013-02-12 06:00:00,26.0,21.0,29.85,West,281,15.0,-999.0,81,-99.99,,,-99.99,0.040000,,2013-02-12 13:00:00,
2013-02-12 06:52:00,26.0,21.0,29.85,West,281,15.0,-999.0,81,-99.99,,,-99.99,0.040000,,2013-02-12 13:52:00,
2013-02-12 07:00:00,26.0,21.0,29.86,WNW,283,16.0,-999.0,81,-99.99,,,-99.99,0.230000,,2013-02-12 14:00:00,
2013-02-12 07:52:00,26.0,21.0,29.86,WNW,283,16.0,-999.0,81,-99.99,,,-99.99,0.230000,,2013-02-12 14:52:00,
2013-02-12 08:00:00,27.0,22.0,29.87,WNW,282,17.0,-999.0,79,-99.99,,,-99.99,25.480000,,2013-02-12 15:00:00,
2013-02-12 08:52:00,27.0,22.0,29.87,WNW,282,17.0,-999.0,79,-99.99,,,-99.99,25.480000,,2013-02-12 15:52:00,
2013-02-12 09:00:00,29.0,23.0,29.88,West,280,16.0,-999.0,77,-99.99,,,-99.99,104.699997,,2013-02-12 16:00:00,
2013-02-12 09:52:00,29.0,23.0,29.88,West,280,16.0,-999.0,77,-99.99,,,-99.99,104.699997,,2013-02-12 16:52:00,
2013-02-12 10:00:00,31.0,23.0,29.90,West,280,16.0,-999.0,74,-99.99,,,-99.99,158.899994,,2013-02-12 17:00:00,
2013-02-12 10:52:00,31.0,23.0,29.90,West,280,16.0,-999.0,74,-99.99,,,-99.99,158.899994,,2013-02-12 17:52:00,
2013-02-12 11:00:00,34.0,24.0,29.89,West,280,16.0,-999.0,66,-99.99,,,-99.99,382.399994,,2013-02-12 18:00:00,
2013-02-12 11:52:00,34.0,24.0,29.89,West,280,16.0,-999.0,66,-99.99,,,-99.99,382.399994,,2013-02-12 18:52:00,
2013-02-12 12:00:00,36.0,25.0,29.88,WNW,291,17.0,-999.0,64,-99.99,,,-99.99,467.100006,,2013-02-12 19:00:00,
2013-02-12 12:52:00,36.0,25.0,29.88,WNW,291,17.0,-999.0,64,-99.99,,,-99.99,467.100006,,2013-02-12 19:52:00,
2013-02-12 13:00:00,37.0,25.0,29.86,WNW,295,17.0,-999.0,61,-99.99,,,-99.99,423.600006,,2013-02-12 20:00:00,
2013-02-12 13:52:00,37.0,25.0,29.86,WNW,295,17.0,-999.0,61,-99.99,,,-99.99,423.600006,,2013-02-12 20:52:00,
2013-02-12 14:00:00,38.0,25.0,29.85,WNW,288,15.0,-999.0,59,-99.99,,,-99.99,397.700012,,2013-02-12 21:00:00,
2013-02-12 14:52:00,38.0,25.0,29.85,WNW,288,15.0,-999.0,59,-99.99,,,-99.99,397.700012,,2013-02-12 21:52:00,
2013-02-12 15:00:00,39.0,25.0,29.84,West,272,11.0,-999.0,57,-99.99,,,-99.99,315.899994,,2013-02-12 22:00:00,
2013-02-12 15:52:00,39.0,25.0,29.84,West,272,11.0,-999.0,57,-99.99,,,-99.99,315.899994,,2013-02-12 22:52:00,
2013-02-12 16:00:00,37.0,27.0,29.83,West,277,12.0,-999.0,67,-99.99,,,-99.99,179.500000,,2013-02-12 23:00:00,
2013-02-12 16:52:00,37.0,27.0,29.83,West,277,12.0,-999.0,67,-99.99,,,-99.99,179.500000,,2013-02-12 23:52:00,
2013-02-12 17:00:00,35.0,29.0,29.82,West,278,13.0,-999.0,78,-99.99,,,-99.99,47.520000,,2013-02-13 00:00:00,
2013-02-12 17:52:00,35.0,29.0,29.82,West,278,13.0,-999.0,78,-99.99,,,-99.99,47.520000,,2013-02-13 00:52:00,
2013-02-12 18:00:00,33.0,27.0,29.84,West,272,11.0,-999.0,78,-99.99,,,-99.99,2.760000,,2013-02-13 01:00:00,
2013-02-12 18:52:00,33.0,27.0,29.84,West,272,11.0,-999.0,78,-99.99,,,-99.99,2.760000,,2013-02-13 01:52:00,
2013-02-12 19:00:00,34.0,28.0,29.84,West,272,10.0,-999.0,79,-99.99,,,-99.99,0.060000,,2013-02-13 02:00:00,
2013-02-12 19:52:00,34.0,28.0,29.84,West,272,10.0,-999.0,79,-99.99,,,-99.99,0.060000,,2013-02-13 02:52:00,
2013-02-12 20:00:00,33.0,27.0,29.80,West,274,7.0,-999.0,78,-99.99,,,-99.99,0.050000,,2013-02-13 03:00:00,
2013-02-12 20:52:00,33.0,27.0,29.80,West,274,7.0,-999.0,78,-99.99,,,-99.99,0.050000,,2013-02-13 03:52:00,
2013-02-12 21:00:00,31.0,26.0,29.78,West,259,7.0,-999.0,80,-99.99,,,-99.99,0.040000,,2013-02-13 04:00:00,
2013-02-12 21:52:00,31.0,26.0,29.78,West,259,7.0,-999.0,80,-99.99,,,-99.99,0.040000,,2013-02-13 04:52:00,
2013-02-12 22:00:00,34.0,25.0,29.76,WSW,258,10.0,-999.0,70,-99.99,,,-99.99,0.030000,,2013-02-13 05:00:00,
2013-02-12 22:52:00,34.0,25.0,29.76,WSW,258,10.0,-999.0,70,-99.99,,,-99.99,0.030000,,2013-02-13 05:52:00,
2013-02-12 23:00:00,34.0,25.0,29.75,WSW,244,12.0,-999.0,68,-99.99,,,-99.99,0.040000,,2013-02-13 06:00:00,
2013-02-12 23:52:00,34.0,25.0,29.75,WSW,244,12.0,-999.0,68,-99.99,,,-99.99,0.040000,,2013-02-13 06:52:00,